Time;durP1;ratioP1;P1;durP2;ratioP2;P2;SDS_P1;SDS_P2;PMS_P1;PMS_P2;Temp;Humidity;BMP_temperature;BMP_pressure;BME280_temperature;BME280_humidity;BME280_pressure;Samples;Min_cycle;Max_cycle;Signal;HPM_P1;HPM_P2
2022/06/20 00:01:22;;;;;;;3.53;2.00;;;16.10;99.90;;;;;;5088581;28;20455;-71
2022/06/20 00:03:50;;;;;;;3.40;1.90;;;16.00;99.90;;;;;;5095326;28;20472;-70
2022/06/20 00:06:20;;;;;;;2.10;1.87;;;15.90;99.90;;;;;;5095651;28;20528;-71
2022/06/20 00:08:49;;;;;;;6.87;2.13;;;16.00;99.90;;;;;;5098846;28;20464;-71
2022/06/20 00:11:17;;;;;;;4.83;2.03;;;16.10;99.90;;;;;;5099678;28;20538;-72
2022/06/20 00:13:47;;;;;;;1.80;1.50;;;16.20;99.90;;;;;;5100147;28;20920;-71
2022/06/20 00:16:16;;;;;;;2.37;1.57;;;16.10;99.90;;;;;;5098652;28;20472;-71
2022/06/20 00:18:45;;;;;;;8.73;1.57;;;16.00;99.90;;;;;;5102011;28;20469;-70
2022/06/20 00:21:13;;;;;;;3.43;2.10;;;15.90;99.90;;;;;;5101807;28;20485;-70
2022/06/20 00:23:40;;;;;;;3.50;2.57;;;15.80;99.90;;;;;;5095831;28;20435;-71
2022/06/20 00:26:08;;;;;;;2.60;1.70;;;16.00;99.90;;;;;;5099956;28;20452;-71
2022/06/20 00:28:35;;;;;;;3.87;1.87;;;16.10;99.90;;;;;;5098702;28;20447;-71
2022/06/20 00:31:02;;;;;;;5.20;2.27;;;16.10;99.90;;;;;;5095277;28;21319;-71
2022/06/20 00:33:30;;;;;;;3.97;2.33;;;16.00;99.90;;;;;;5095663;28;20436;-71
2022/06/20 00:35:59;;;;;;;2.47;1.90;;;16.10;99.90;;;;;;5103159;28;20428;-72
2022/06/20 00:38:26;;;;;;;5.50;2.20;;;16.20;99.90;;;;;;5102552;28;20532;-71
2022/06/20 00:40:56;;;;;;;3.77;1.90;;;16.40;99.90;;;;;;5098429;27;20464;-71
2022/06/20 00:43:27;;;;;;;7.33;2.40;;;16.30;99.90;;;;;;5098753;28;21049;-71
2022/06/20 00:45:57;;;;;;;4.93;2.83;;;16.30;99.90;;;;;;5102821;28;20447;-71
2022/06/20 00:48:30;;;;;;;2.60;2.07;;;16.20;99.90;;;;;;5099122;28;20470;-71
2022/06/20 00:51:14;;;;;;;4.30;2.13;;;16.30;99.90;;;;;;5096799;28;20452;-71
2022/06/20 00:53:45;;;;;;;3.00;2.67;;;16.20;99.90;;;;;;5103420;28;20537;-71
2022/06/20 00:56:17;;;;;;;2.00;1.83;;;16.40;99.90;;;;;;5097521;28;20445;-71
2022/06/20 00:58:47;;;;;;;2.60;2.30;;;16.50;99.90;;;;;;5098205;28;20457;-71
2022/06/20 01:01:16;;;;;;;11.73;3.10;;;16.40;99.90;;;;;;5100253;28;20552;-71
2022/06/20 01:03:47;;;;;;;2.93;2.47;;;16.30;99.90;;;;;;5096384;28;20436;-72
2022/06/20 01:06:22;;;;;;;2.53;1.93;;;16.30;99.90;;;;;;5101306;28;20479;-71
2022/06/20 01:08:53;;;;;;;4.17;1.80;;;16.40;99.90;;;;;;5091962;28;20442;-71
2022/06/20 01:11:24;;;;;;;2.90;2.60;;;16.50;99.90;;;;;;5099560;28;20468;-70
2022/06/20 01:13:51;;;;;;;5.87;2.43;;;16.50;99.90;;;;;;5100909;27;20473;-70
2022/06/20 01:16:25;;;;;;;3.07;2.73;;;16.50;99.90;;;;;;5098706;27;20452;-69
2022/06/20 01:18:53;;;;;;;5.73;2.40;;;16.50;99.90;;;;;;5102152;28;20435;-69
2022/06/20 01:21:28;;;;;;;2.97;2.17;;;16.50;99.90;;;;;;5090946;28;20581;-70
2022/06/20 01:24:06;;;;;;;5.00;2.67;;;16.50;99.90;;;;;;5100258;28;20457;-70
2022/06/20 01:26:46;;;;;;;2.30;1.90;;;16.50;99.90;;;;;;5099100;28;20444;-70
2022/06/20 01:29:15;;;;;;;4.20;2.23;;;16.70;99.90;;;;;;5093963;28;20545;-70
2022/06/20 01:31:46;;;;;;;2.20;2.00;;;16.40;99.90;;;;;;5100599;28;20481;-70
2022/06/20 01:34:15;;;;;;;2.47;2.27;;;16.40;99.90;;;;;;5100590;27;20488;-70
2022/06/20 01:39:30;;;;;;;3.03;2.73;;;16.30;99.90;;;;;;5098449;28;20443;-70
2022/06/20 01:44:46;;;;;;;6.00;3.57;;;16.10;99.90;;;;;;5095044;28;20469;-70
2022/06/20 01:47:14;;;;;;;2.47;2.27;;;16.20;99.90;;;;;;5099818;28;20450;-70
2022/06/20 01:49:44;;;;;;;4.87;2.50;;;16.20;99.90;;;;;;5099654;28;20431;-70
2022/06/20 01:52:17;;;;;;;2.63;2.30;;;16.30;99.90;;;;;;5097088;28;20444;-69
2022/06/20 01:54:47;;;;;;;15.87;3.10;;;16.30;99.90;;;;;;5099689;28;20455;-70
2022/06/20 01:57:15;;;;;;;6.10;2.70;;;16.10;99.90;;;;;;5098325;28;20474;-69
2022/06/20 01:59:50;;;;;;;3.40;2.83;;;16.00;99.90;;;;;;5097512;28;20514;-70
2022/06/20 02:02:19;;;;;;;4.17;2.60;;;15.90;99.90;;;;;;5100646;27;20476;-70
2022/06/20 02:04:46;;;;;;;2.80;2.50;;;16.00;99.90;;;;;;5097865;28;20951;-70
2022/06/20 02:07:14;;;;;;;4.03;3.03;;;16.00;99.90;;;;;;5100094;27;20520;-70
2022/06/20 02:09:42;;;;;;;4.40;3.00;;;16.20;99.90;;;;;;5096185;28;20448;-70
2022/06/20 02:12:11;;;;;;;4.27;2.67;;;16.20;99.90;;;;;;5101086;28;20552;-70
2022/06/20 02:14:42;;;;;;;3.03;2.73;;;16.10;99.90;;;;;;5102251;28;20541;-70
2022/06/20 02:17:15;;;;;;;2.20;2.00;;;16.10;99.90;;;;;;5098289;28;20456;-70
2022/06/20 02:19:46;;;;;;;4.77;2.50;;;15.90;99.90;;;;;;5098671;27;20501;-70
2022/06/20 02:22:18;;;;;;;2.70;2.30;;;15.90;99.90;;;;;;5096940;27;21004;-70
2022/06/20 02:24:48;;;;;;;5.00;3.17;;;15.90;99.90;;;;;;5094629;27;20533;-70
2022/06/20 02:27:21;;;;;;;5.80;4.10;;;16.00;99.90;;;;;;5100047;28;20488;-70
2022/06/20 02:29:48;;;;;;;3.93;3.57;;;16.10;99.90;;;;;;5094545;28;20447;-70
2022/06/20 02:32:20;;;;;;;3.73;2.87;;;16.20;99.90;;;;;;5095380;28;20459;-70
2022/06/20 02:34:47;;;;;;;6.13;2.30;;;16.20;99.90;;;;;;5098078;28;20521;-69
2022/06/20 02:37:20;;;;;;;3.80;2.70;;;16.00;99.90;;;;;;5098091;28;20511;-71
2022/06/20 02:39:50;;;;;;;3.13;2.50;;;16.10;99.90;;;;;;5094291;28;20442;-70
2022/06/20 02:42:32;;;;;;;2.20;2.00;;;16.00;99.90;;;;;;5095104;28;20451;-70
2022/06/20 02:44:59;;;;;;;3.00;2.53;;;16.00;99.90;;;;;;5098905;28;20472;-70
2022/06/20 02:47:28;;;;;;;5.77;2.20;;;15.80;99.90;;;;;;5100382;28;20481;-71
2022/06/20 02:49:57;;;;;;;5.40;1.83;;;15.70;99.90;;;;;;5098110;28;20549;-70
2022/06/20 02:52:36;;;;;;;3.30;1.93;;;15.60;99.90;;;;;;5097829;28;20481;-70
2022/06/20 02:55:04;;;;;;;3.70;2.97;;;15.60;99.90;;;;;;5091442;28;20460;-69
2022/06/20 02:57:36;;;;;;;6.13;2.63;;;15.70;99.90;;;;;;5091650;28;20494;-70
2022/06/20 03:00:08;;;;;;;3.43;3.00;;;15.60;99.90;;;;;;5097871;28;20444;-69
2022/06/20 03:02:39;;;;;;;2.47;2.10;;;15.60;99.90;;;;;;5094709;28;20485;-69
2022/06/20 03:05:06;;;;;;;3.60;2.50;;;15.60;99.90;;;;;;5093027;28;20457;-69
2022/06/20 03:07:37;;;;;;;6.70;3.10;;;15.50;99.90;;;;;;5098207;28;20485;-69
2022/06/20 03:10:15;;;;;;;4.07;2.63;;;15.40;99.90;;;;;;5099956;28;20469;-70
2022/06/20 03:12:42;;;;;;;7.30;2.53;;;15.30;99.90;;;;;;5096769;28;20454;-69
2022/06/20 03:15:10;;;;;;;2.40;2.00;;;15.30;99.90;;;;;;5093390;28;20462;-69
2022/06/20 03:17:41;;;;;;;13.23;3.00;;;15.20;99.90;;;;;;5099117;28;20831;-69
2022/06/20 03:20:13;;;;;;;3.03;2.73;;;15.20;99.90;;;;;;5097840;28;20452;-70
2022/06/20 03:22:47;;;;;;;3.17;2.30;;;15.10;99.90;;;;;;5092734;28;20476;-70
2022/06/20 03:25:16;;;;;;;4.80;2.40;;;15.10;99.90;;;;;;5094036;28;20436;-70
2022/06/20 03:27:44;;;;;;;4.30;1.90;;;15.00;99.90;;;;;;5099799;28;20425;-70
2022/06/20 03:30:25;;;;;;;2.30;2.00;;;14.90;99.90;;;;;;5097773;28;20913;-70
2022/06/20 03:32:54;;;;;;;2.33;2.13;;;14.90;99.90;;;;;;5099276;28;20435;-69
2022/06/20 03:35:21;;;;;;;13.57;2.47;;;14.80;99.90;;;;;;5102442;28;20428;-70
2022/06/20 03:37:48;;;;;;;3.93;3.53;;;14.90;99.90;;;;;;5102397;28;20757;-70
2022/06/20 03:40:16;;;;;;;10.37;2.57;;;14.90;99.90;;;;;;5099633;28;20449;-70
2022/06/20 03:42:44;;;;;;;6.73;2.17;;;14.90;99.90;;;;;;5099733;28;20556;-69
2022/06/20 03:45:15;;;;;;;3.93;3.60;;;15.00;99.90;;;;;;5097587;28;20424;-69
2022/06/20 03:47:46;;;;;;;5.10;2.47;;;14.90;99.90;;;;;;5101441;28;20469;-69
2022/06/20 03:50:19;;;;;;;2.60;2.20;;;14.90;99.90;;;;;;5100414;28;20459;-69
2022/06/20 03:52:52;;;;;;;8.40;2.10;;;14.90;99.90;;;;;;5099173;28;20559;-69
2022/06/20 03:55:28;;;;;;;3.43;2.93;;;15.00;99.90;;;;;;5104980;28;20808;-69
2022/06/20 03:58:00;;;;;;;13.23;3.23;;;15.10;99.90;;;;;;5105795;27;21261;-70
2022/06/20 04:00:35;;;;;;;6.40;2.70;;;15.20;99.90;;;;;;5105593;28;20441;-69
2022/06/20 04:03:10;;;;;;;24.47;4.10;;;15.20;99.90;;;;;;5106906;28;20438;-69
2022/06/20 04:05:46;;;;;;;12.53;2.90;;;15.20;99.90;;;;;;5105769;27;20435;-70
2022/06/20 04:08:24;;;;;;;6.67;2.70;;;15.20;99.90;;;;;;5105868;28;20449;-70
2022/06/20 04:11:01;;;;;;;3.63;1.87;;;15.20;99.90;;;;;;5099288;28;20483;-69
2022/06/20 04:13:33;;;;;;;7.10;2.33;;;15.30;99.90;;;;;;5103761;28;20423;-70
2022/06/20 04:16:05;;;;;;;6.87;2.90;;;15.20;99.90;;;;;;5102505;28;20449;-69
2022/06/20 04:18:37;;;;;;;2.67;2.20;;;15.10;99.90;;;;;;5097846;28;20526;-69
2022/06/20 04:21:14;;;;;;;4.73;2.10;;;15.20;99.90;;;;;;5100382;28;20484;-70
2022/06/20 04:23:48;;;;;;;3.13;2.27;;;15.20;99.90;;;;;;5100453;27;21166;-69
2022/06/20 04:26:21;;;;;;;10.90;2.87;;;15.30;99.90;;;;;;5107543;28;20468;-70
2022/06/20 04:28:53;;;;;;;7.13;2.87;;;15.40;99.90;;;;;;5094307;28;20816;-70
2022/06/20 04:31:25;;;;;;;6.13;3.13;;;15.30;99.90;;;;;;5099984;27;20500;-70
2022/06/20 04:33:59;;;;;;;8.47;2.50;;;15.40;99.90;;;;;;5095379;28;20464;-70
2022/06/20 04:36:36;;;;;;;4.70;2.50;;;15.40;99.90;;;;;;5095581;28;20449;-70
2022/06/20 04:39:10;;;;;;;3.30;2.83;;;15.30;99.90;;;;;;5100486;27;21097;-70
2022/06/20 04:41:41;;;;;;;7.70;1.90;;;15.40;99.90;;;;;;5097025;27;20577;-70
2022/06/20 04:44:18;;;;;;;2.87;2.30;;;15.50;99.90;;;;;;5090062;28;20575;-71
2022/06/20 04:46:58;;;;;;;2.10;1.80;;;15.40;99.90;;;;;;5093298;28;20474;-69
2022/06/20 04:49:25;;;;;;;4.67;1.90;;;15.30;99.90;;;;;;5098947;28;20439;-70
2022/06/20 04:51:53;;;;;;;2.30;1.97;;;15.10;99.90;;;;;;5101290;28;20546;-70
2022/06/20 04:54:22;;;;;;;3.40;2.27;;;15.20;99.90;;;;;;5104723;28;20424;-70
2022/06/20 04:56:51;;;;;;;5.90;3.70;;;15.30;99.90;;;;;;5105350;27;20462;-70
2022/06/20 04:59:21;;;;;;;4.00;2.67;;;15.20;99.90;;;;;;5104669;28;20543;-70
2022/06/20 05:01:49;;;;;;;4.30;2.50;;;15.30;99.90;;;;;;5102362;28;20508;-70
2022/06/20 05:04:37;;;;;;;5.90;2.20;;;15.30;99.90;;;;;;5104755;28;20485;-70
2022/06/20 05:07:11;;;;;;;3.37;2.03;;;15.20;99.90;;;;;;5104176;28;20960;-70
2022/06/20 05:09:43;;;;;;;2.73;2.13;;;15.40;99.90;;;;;;5105295;28;20849;-70
2022/06/20 05:12:15;;;;;;;2.33;1.90;;;15.20;99.90;;;;;;5105908;28;20457;-70
2022/06/20 05:14:48;;;;;;;3.53;2.27;;;15.20;99.90;;;;;;5107253;28;20441;-71
2022/06/20 05:17:20;;;;;;;3.90;2.70;;;15.20;99.90;;;;;;5103794;28;20435;-70
2022/06/20 05:19:51;;;;;;;4.10;2.80;;;15.40;99.90;;;;;;5106606;28;20441;-70
2022/06/20 05:22:23;;;;;;;3.70;2.80;;;15.50;99.90;;;;;;5106319;28;20436;-71
2022/06/20 05:24:52;;;;;;;6.43;2.53;;;15.70;99.90;;;;;;5104717;28;20788;-70
2022/06/20 05:27:21;;;;;;;5.70;3.47;;;15.80;99.90;;;;;;5105222;28;20448;-70
2022/06/20 05:29:50;;;;;;;4.27;2.60;;;15.80;99.90;;;;;;5100036;28;20883;-69
2022/06/20 05:32:23;;;;;;;4.07;2.40;;;15.80;99.90;;;;;;5107315;27;20435;-70
2022/06/20 05:34:56;;;;;;;6.70;2.60;;;15.50;99.90;;;;;;5103527;28;20482;-70
2022/06/20 05:37:33;;;;;;;5.87;2.60;;;15.60;99.90;;;;;;5106986;27;20459;-69
2022/06/20 05:40:07;;;;;;;4.03;2.23;;;15.70;99.90;;;;;;5100993;28;20519;-71
2022/06/20 05:42:33;;;;;;;3.70;1.77;;;15.80;99.90;;;;;;5104597;28;20451;-71
2022/06/20 05:45:00;;;;;;;3.33;2.40;;;15.80;99.90;;;;;;5105089;28;20982;-70
2022/06/20 05:47:31;;;;;;;4.73;2.00;;;16.00;99.90;;;;;;5105465;28;20448;-71
2022/06/20 05:50:04;;;;;;;2.57;1.97;;;16.10;99.90;;;;;;5105549;27;20453;-71
2022/06/20 05:52:32;;;;;;;3.80;2.93;;;16.10;99.90;;;;;;5102692;28;20435;-71
2022/06/20 05:55:05;;;;;;;10.17;2.53;;;16.20;99.90;;;;;;5106278;27;20448;-70
2022/06/20 05:57:34;;;;;;;2.47;2.10;;;16.10;99.90;;;;;;5105225;28;20451;-71
2022/06/20 06:00:06;;;;;;;6.53;2.63;;;16.20;99.90;;;;;;5102263;28;20515;-70
2022/06/20 06:02:38;;;;;;;4.53;2.47;;;16.30;99.90;;;;;;5103235;28;20483;-71
2022/06/20 06:05:13;;;;;;;4.70;2.37;;;16.40;99.90;;;;;;5105433;27;20441;-71
2022/06/20 06:07:47;;;;;;;3.70;1.80;;;16.40;99.90;;;;;;5094641;27;20483;-71
2022/06/20 06:10:27;;;;;;;6.93;2.43;;;16.40;99.90;;;;;;5102941;28;20912;-70
2022/06/20 06:13:02;;;;;;;4.80;2.90;;;16.40;99.90;;;;;;5103096;28;20437;-71
2022/06/20 06:15:39;;;;;;;3.07;2.73;;;16.50;99.90;;;;;;5103549;28;20535;-71
2022/06/20 06:18:10;;;;;;;2.97;1.70;;;16.20;99.90;;;;;;5105148;28;20437;-71
2022/06/20 06:20:38;;;;;;;4.50;1.97;;;16.30;99.90;;;;;;5101816;28;20424;-71
2022/06/20 06:23:09;;;;;;;8.37;3.27;;;16.40;99.90;;;;;;5106315;27;20445;-71
2022/06/20 06:25:38;;;;;;;2.90;1.93;;;16.70;99.90;;;;;;5105263;28;20460;-71
2022/06/20 06:28:07;;;;;;;4.70;1.53;;;16.90;99.90;;;;;;5103408;28;20452;-70
2022/06/20 06:30:40;;;;;;;5.10;2.10;;;16.90;99.90;;;;;;5104510;28;20510;-71
2022/06/20 06:33:20;;;;;;;4.73;2.23;;;17.00;99.90;;;;;;5103510;28;20445;-71
2022/06/20 06:35:51;;;;;;;2.90;1.83;;;17.00;99.90;;;;;;5107924;28;20458;-72
2022/06/20 06:38:24;;;;;;;3.67;2.47;;;17.20;99.90;;;;;;5097665;27;20489;-71
2022/06/20 06:40:53;;;;;;;6.10;2.00;;;17.50;99.90;;;;;;5102594;27;20491;-72
2022/06/20 06:43:24;;;;;;;3.60;2.63;;;17.80;99.90;;;;;;5093301;27;20454;-72
2022/06/20 06:45:53;;;;;;;4.37;2.10;;;17.90;99.90;;;;;;5101376;28;21578;-71
2022/06/20 06:48:26;;;;;;;4.70;2.47;;;17.90;99.90;;;;;;5097364;28;20473;-71
2022/06/20 06:50:58;;;;;;;3.10;2.10;;;17.90;99.90;;;;;;5101757;28;20974;-71
2022/06/20 06:53:34;;;;;;;9.20;2.67;;;17.80;99.90;;;;;;5100737;28;20455;-71
2022/06/20 06:56:06;;;;;;;5.90;2.40;;;17.60;99.90;;;;;;5101354;27;20423;-72
2022/06/20 06:58:36;;;;;;;6.87;2.07;;;17.60;99.90;;;;;;5100813;28;20424;-70
2022/06/20 07:01:08;;;;;;;3.43;2.17;;;17.60;99.90;;;;;;5100953;28;20530;-71
2022/06/20 07:03:40;;;;;;;3.77;1.83;;;17.30;99.90;;;;;;5104006;28;20447;-70
2022/06/20 07:06:14;;;;;;;6.63;2.23;;;17.30;99.90;;;;;;5104005;28;20424;-70
2022/06/20 07:08:49;;;;;;;3.53;2.00;;;17.40;99.90;;;;;;5101595;28;20481;-70
2022/06/20 07:11:21;;;;;;;2.60;1.73;;;17.50;99.90;;;;;;5104737;28;20791;-71
2022/06/20 07:13:56;;;;;;;3.70;1.80;;;17.70;99.90;;;;;;5099584;28;20841;-71
2022/06/20 07:16:30;;;;;;;5.17;2.17;;;17.80;99.90;;;;;;5097561;28;20471;-71
2022/06/20 07:18:59;;;;;;;5.53;1.70;;;17.30;99.90;;;;;;5098619;28;20441;-71
2022/06/20 07:21:28;;;;;;;2.90;1.90;;;17.30;99.90;;;;;;5102929;28;20683;-71
2022/06/20 07:24:00;;;;;;;7.30;2.20;;;17.30;99.90;;;;;;5095897;28;20562;-70
2022/06/20 07:26:35;;;;;;;3.03;2.20;;;17.20;99.90;;;;;;5100965;28;20529;-70
2022/06/20 07:29:07;;;;;;;7.43;2.00;;;17.30;99.90;;;;;;5101268;28;20532;-70
2022/06/20 07:31:39;;;;;;;5.57;2.60;;;17.60;99.90;;;;;;5100681;28;20568;-70
2022/06/20 07:34:12;;;;;;;5.77;1.43;;;18.10;99.90;;;;;;5101076;28;20441;-70
2022/06/20 07:36:44;;;;;;;3.87;1.80;;;18.40;99.90;;;;;;5103925;28;20434;-70
2022/06/20 07:39:19;;;;;;;3.10;1.50;;;18.30;99.90;;;;;;5098998;28;21130;-70
2022/06/20 07:41:52;;;;;;;2.03;1.50;;;18.70;99.90;;;;;;5103052;28;20468;-71
2022/06/20 07:44:23;;;;;;;4.13;2.10;;;18.90;99.90;;;;;;5102933;28;20953;-72
2022/06/20 07:46:55;;;;;;;5.20;1.80;;;19.30;99.90;;;;;;5103794;28;20565;-70
2022/06/20 07:49:28;;;;;;;10.43;1.87;;;19.70;99.90;;;;;;5102387;28;20532;-70
2022/06/20 07:52:00;;;;;;;7.10;2.00;;;19.80;99.90;;;;;;5100770;28;20457;-70
2022/06/20 07:54:34;;;;;;;3.27;2.30;;;19.70;99.90;;;;;;5105658;28;20693;-72
2022/06/20 07:57:06;;;;;;;5.73;1.87;;;19.50;99.90;;;;;;5099354;28;20866;-72
2022/06/20 07:59:37;;;;;;;2.00;1.57;;;19.20;99.90;;;;;;5097775;28;20441;-72
2022/06/20 08:02:15;;;;;;;11.70;2.23;;;19.80;99.90;;;;;;5103381;28;20457;-70
2022/06/20 08:04:45;;;;;;;4.13;2.53;;;20.00;99.90;;;;;;5102325;28;20455;-70
2022/06/20 08:07:16;;;;;;;4.20;1.90;;;20.70;99.90;;;;;;5102608;28;20588;-70
2022/06/20 08:09:52;;;;;;;6.43;2.20;;;21.00;99.90;;;;;;5104493;28;20481;-70
2022/06/20 08:12:23;;;;;;;3.97;1.87;;;21.00;99.90;;;;;;5103115;28;21068;-70
2022/06/20 08:14:54;;;;;;;6.83;2.67;;;20.40;99.90;;;;;;5103558;28;20535;-71
2022/06/20 08:17:22;;;;;;;2.63;2.00;;;20.20;99.90;;;;;;5102456;28;21014;-71
2022/06/20 08:19:50;;;;;;;1.80;1.20;;;20.70;99.90;;;;;;5099219;28;20437;-71
2022/06/20 08:22:21;;;;;;;2.77;1.53;;;21.00;99.90;;;;;;5102286;28;20484;-71
2022/06/20 08:24:54;;;;;;;11.17;2.37;;;20.90;99.90;;;;;;5103129;28;20811;-71
2022/06/20 08:27:29;;;;;;;5.10;2.07;;;20.70;99.90;;;;;;5101347;28;20560;-70
2022/06/20 08:30:04;;;;;;;2.10;1.90;;;20.40;99.90;;;;;;5103527;28;20452;-71
2022/06/20 08:32:36;;;;;;;3.63;1.30;;;20.90;99.90;;;;;;5106592;28;20460;-71
2022/06/20 08:35:13;;;;;;;11.87;1.67;;;20.90;99.90;;;;;;5105527;27;20437;-71
2022/06/20 08:37:45;;;;;;;2.17;1.77;;;21.80;99.90;;;;;;5104336;27;20437;-71
2022/06/20 08:40:44;;;;;;;2.93;1.50;;;22.90;99.90;;;;;;5100265;28;20453;-71
2022/06/20 08:43:37;;;;;;;8.30;1.57;;;23.30;99.90;;;;;;5086309;27;20465;-71
2022/06/20 08:46:22;;;;;;;7.63;2.33;;;23.70;99.90;;;;;;5097496;28;20449;-72
2022/06/20 08:49:19;;;;;;;6.70;2.07;;;24.30;99.90;;;;;;5105262;27;20477;-71
2022/06/20 08:52:22;;;;;;;1.97;1.10;;;25.10;99.90;;;;;;5106569;28;20941;-71
2022/06/20 08:55:22;;;;;;;5.63;1.80;;;25.60;99.90;;;;;;5077074;27;20432;-71
2022/06/20 08:58:07;;;;;;;2.40;1.43;;;24.10;99.90;;;;;;5103490;27;20445;-71
2022/06/20 09:00:45;;;;;;;2.60;1.30;;;24.20;99.90;;;;;;5099535;28;20439;-71
2022/06/20 09:03:47;;;;;;;7.00;1.50;;;24.80;99.90;;;;;;5106136;27;20993;-71
2022/06/20 09:06:42;;;;;;;2.93;2.07;;;24.80;99.50;;;;;;5105254;28;20429;-71
2022/06/20 09:09:44;;;;;;;1.73;1.30;;;24.90;99.70;;;;;;5104398;28;20946;-71
2022/06/20 09:12:25;;;;;;;4.23;1.53;;;24.70;97.80;;;;;;5105125;27;20847;-71
2022/06/20 09:15:17;;;;;;;9.70;3.30;;;25.40;96.90;;;;;;5099939;28;20534;-71
2022/06/20 09:17:55;;;;;;;3.43;1.70;;;25.50;96.70;;;;;;5091538;28;20923;-71
2022/06/20 09:20:34;;;;;;;1.30;1.10;;;26.00;95.00;;;;;;5100712;28;20442;-71
2022/06/20 09:23:16;;;;;;;1.93;1.20;;;25.10;94.20;;;;;;5100720;28;20449;-70
2022/06/20 09:25:55;;;;;;;8.00;2.50;;;25.00;94.20;;;;;;5103335;28;20955;-71
2022/06/20 09:28:51;;;;;;;2.50;1.60;;;24.50;95.30;;;;;;5101506;27;20481;-71
2022/06/20 09:31:50;;;;;;;3.00;1.40;;;24.80;95.70;;;;;;5096932;27;20536;-71
2022/06/20 09:34:53;;;;;;;2.63;1.70;;;25.20;94.00;;;;;;5103840;28;20441;-70
2022/06/20 09:37:49;;;;;;;2.80;1.80;;;25.00;92.00;;;;;;5101395;28;20449;-71
2022/06/20 09:40:24;;;;;;;4.23;1.47;;;23.80;92.50;;;;;;5071210;27;20472;-70
2022/06/20 09:42:59;;;;;;;5.00;1.50;;;23.00;96.00;;;;;;5102678;28;20484;-71
2022/06/20 09:45:36;;;;;;;3.00;1.30;;;22.60;97.60;;;;;;5105419;27;21127;-71
2022/06/20 09:48:14;;;;;;;2.43;1.30;;;22.00;97.40;;;;;;5103777;28;21012;-70
2022/06/20 09:50:52;;;;;;;1.57;1.43;;;21.40;97.70;;;;;;5104270;27;20461;-70
2022/06/20 09:53:44;;;;;;;1.87;1.37;;;21.10;99.90;;;;;;5100811;28;20457;-70
2022/06/20 09:56:16;;;;;;;5.10;1.10;;;22.40;98.40;;;;;;5101740;28;20962;-70
2022/06/20 09:58:55;;;;;;;1.30;1.03;;;22.90;96.40;;;;;;5101572;28;20455;-70
2022/06/20 10:01:29;;;;;;;3.10;1.53;;;22.30;96.50;;;;;;5097493;28;20482;-70
2022/06/20 10:04:03;;;;;;;1.53;1.23;;;22.50;99.00;;;;;;5105350;27;20465;-69
2022/06/20 10:06:48;;;;;;;2.50;1.63;;;22.50;98.00;;;;;;5099508;28;20451;-70
2022/06/20 10:09:20;;;;;;;3.67;1.83;;;22.90;96.70;;;;;;5103334;28;20481;-73
2022/06/20 10:11:55;;;;;;;3.87;1.30;;;24.20;96.80;;;;;;5104786;28;20457;-72
2022/06/20 10:14:29;;;;;;;3.50;1.60;;;25.30;93.10;;;;;;5105756;28;20443;-71
2022/06/20 10:17:02;;;;;;;4.47;1.47;;;25.80;92.50;;;;;;5105188;28;20437;-72
2022/06/20 10:19:35;;;;;;;2.60;1.40;;;26.30;90.00;;;;;;5106288;27;20938;-70
2022/06/20 10:22:12;;;;;;;5.77;1.70;;;25.80;90.30;;;;;;5104350;28;20518;-71
2022/06/20 10:24:53;;;;;;;4.60;1.33;;;25.40;90.60;;;;;;5103532;28;20472;-71
2022/06/20 10:27:45;;;;;;;1.93;1.40;;;25.10;89.60;;;;;;5103285;28;20444;-70
2022/06/20 10:30:14;;;;;;;5.47;2.47;;;24.00;91.80;;;;;;5097657;28;20441;-70
2022/06/20 10:32:54;;;;;;;4.17;1.53;;;22.90;93.10;;;;;;5103165;28;20616;-70
2022/06/20 10:35:36;;;;;;;3.03;1.60;;;22.60;94.30;;;;;;5101385;28;20434;-70
2022/06/20 10:38:07;;;;;;;1.87;1.47;;;23.20;93.60;;;;;;5102008;27;20436;-70
2022/06/20 10:40:42;;;;;;;3.50;1.57;;;24.30;93.50;;;;;;5097584;28;20506;-71
2022/06/20 10:43:10;;;;;;;2.83;1.60;;;25.80;92.20;;;;;;5104049;27;20491;-70
2022/06/20 10:45:45;;;;;;;4.70;2.03;;;27.00;84.80;;;;;;5104887;28;20441;-71
2022/06/20 10:48:41;;;;;;;3.90;1.60;;;26.90;84.10;;;;;;5105058;28;20477;-71
2022/06/20 10:51:16;;;;;;;7.27;2.30;;;26.60;89.00;;;;;;5104977;28;20457;-70
2022/06/20 10:53:52;;;;;;;2.10;1.23;;;26.40;86.00;;;;;;5106924;27;20441;-70
2022/06/20 10:56:26;;;;;;;2.63;1.60;;;26.60;80.50;;;;;;5103775;28;20522;-70
2022/06/20 10:59:12;;;;;;;3.33;1.50;;;26.20;79.30;;;;;;5104132;28;20438;-70
2022/06/20 11:01:49;;;;;;;1.30;1.13;;;26.20;78.40;;;;;;5102366;28;20583;-71
2022/06/20 11:04:32;;;;;;;2.87;1.60;;;27.10;76.30;;;;;;5103716;28;20453;-71
2022/06/20 11:07:15;;;;;;;2.63;1.60;;;28.80;75.10;;;;;;5104216;28;20469;-71
2022/06/20 11:09:49;;;;;;;3.20;1.67;;;28.60;69.80;;;;;;5099192;28;20843;-71
2022/06/20 11:12:28;;;;;;;2.97;1.97;;;27.60;73.80;;;;;;5104086;28;20456;-71
2022/06/20 11:15:03;;;;;;;2.90;2.20;;;26.60;74.10;;;;;;5104511;28;20548;-71
2022/06/20 11:17:37;;;;;;;2.27;1.50;;;25.50;75.20;;;;;;5102315;28;20520;-72
2022/06/20 11:20:19;;;;;;;2.20;1.63;;;25.80;76.00;;;;;;5101019;28;21220;-71
2022/06/20 11:22:52;;;;;;;3.63;2.00;;;25.40;75.40;;;;;;5104041;28;20908;-71
2022/06/20 11:25:28;;;;;;;5.83;1.80;;;26.30;75.60;;;;;;5105111;28;20952;-72
2022/06/20 11:28:30;;;;;;;2.63;1.67;;;26.40;76.20;;;;;;5104277;28;20559;-72
2022/06/20 11:31:05;;;;;;;3.17;2.00;;;27.30;74.00;;;;;;5086171;28;20473;-72
2022/06/20 11:36:40;;;;;;;7.70;2.00;;;27.20;71.40;;;;;;5102555;28;20429;-71
2022/06/20 11:39:22;;;;;;;4.37;2.10;;;26.20;75.20;;;;;;5100156;28;20464;-71
2022/06/20 11:41:51;;;;;;;1.70;1.50;;;26.80;72.90;;;;;;5105047;28;20477;-71
2022/06/20 11:44:37;;;;;;;2.83;1.70;;;26.20;74.10;;;;;;5103726;28;20456;-71
2022/06/20 11:47:39;;;;;;;2.10;1.47;;;27.10;74.50;;;;;;5103119;28;20466;-71
2022/06/20 11:50:28;;;;;;;1.63;1.53;;;28.30;69.50;;;;;;5092916;28;20556;-69
2022/06/20 11:53:02;;;;;;;2.60;1.90;;;28.00;66.00;;;;;;5099556;28;20829;-71
2022/06/20 11:55:36;;;;;;;3.73;2.43;;;27.20;68.00;;;;;;5097092;28;20438;-71
2022/06/20 11:58:11;;;;;;;4.33;2.10;;;26.60;69.80;;;;;;5097697;28;20950;-71
2022/06/20 12:00:45;;;;;;;4.93;1.77;;;26.00;71.30;;;;;;5091309;28;20464;-71
2022/06/20 12:03:19;;;;;;;2.30;2.03;;;26.50;72.20;;;;;;5101181;28;20536;-70
2022/06/20 12:05:53;;;;;;;3.10;1.87;;;26.30;71.40;;;;;;5102572;28;20837;-70
2022/06/20 12:08:30;;;;;;;3.03;2.63;;;25.70;71.90;;;;;;5103535;27;20486;-71
2022/06/20 12:11:03;;;;;;;5.80;1.93;;;25.70;73.70;;;;;;5107409;28;20472;-71
2022/06/20 12:13:40;;;;;;;3.30;2.40;;;26.70;74.10;;;;;;5102247;28;20441;-70
2022/06/20 12:16:22;;;;;;;3.10;1.90;;;27.20;69.80;;;;;;5104358;27;20445;-71
2022/06/20 12:24:45;;;;;;;2.33;1.80;;;26.90;71.40;;;;;;5103535;28;20436;-71
2022/06/20 12:27:17;;;;;;;16.63;2.40;;;26.10;73.80;;;;;;5105592;28;20503;-72
2022/06/20 12:29:44;;;;;;;6.77;1.80;;;25.60;75.80;;;;;;5100004;28;20568;-72
2022/06/20 12:32:16;;;;;;;2.67;1.60;;;25.00;75.00;;;;;;5105247;28;20485;-72
2022/06/20 12:34:49;;;;;;;4.70;1.53;;;24.60;78.20;;;;;;5100486;28;20473;-71
2022/06/20 12:37:23;;;;;;;4.03;2.10;;;25.20;79.00;;;;;;5104805;28;20917;-71
2022/06/20 12:39:56;;;;;;;2.30;1.80;;;26.30;77.10;;;;;;5104494;28;20453;-71
2022/06/20 12:42:32;;;;;;;7.07;1.80;;;27.60;76.20;;;;;;5104842;28;20465;-71
2022/06/20 12:45:19;;;;;;;1.93;1.43;;;27.80;70.80;;;;;;5106907;28;20960;-71
2022/06/20 12:48:08;;;;;;;3.27;2.40;;;27.70;70.20;;;;;;5106389;28;20494;-71
2022/06/20 12:50:40;;;;;;;2.07;1.60;;;27.80;72.70;;;;;;5105001;28;20437;-72
2022/06/20 12:53:25;;;;;;;5.53;2.30;;;27.90;71.30;;;;;;5106273;27;20814;-71
2022/06/20 12:56:03;;;;;;;8.03;2.20;;;28.50;72.30;;;;;;5099721;28;20516;-71
2022/06/20 12:59:07;;;;;;;3.83;1.90;;;28.30;69.10;;;;;;5103827;28;20453;-71
2022/06/20 13:01:43;;;;;;;4.43;1.97;;;27.60;68.40;;;;;;5100651;28;20556;-72
2022/06/20 13:04:50;;;;;;;3.30;1.80;;;26.40;71.30;;;;;;5107446;28;20529;-72
2022/06/20 13:07:36;;;;;;;3.20;2.03;;;25.30;73.30;;;;;;5050311;28;20496;-71
2022/06/20 13:10:27;;;;;;;2.40;1.20;;;24.90;77.70;;;;;;5106827;28;20549;-73
2022/06/20 13:13:22;;;;;;;5.97;1.80;;;25.60;74.70;;;;;;5099776;28;21149;-72
2022/06/20 13:15:57;;;;;;;8.77;2.40;;;26.10;73.00;;;;;;5110878;28;21017;-72
2022/06/20 13:18:53;;;;;;;2.53;1.97;;;27.40;70.10;;;;;;5108254;28;20464;-71
2022/06/20 13:21:30;;;;;;;3.93;1.70;;;26.90;70.20;;;;;;5106656;28;20841;-71
2022/06/20 13:24:35;;;;;;;7.67;2.90;;;26.30;70.90;;;;;;5105670;28;20524;-72
2022/06/20 13:27:14;;;;;;;3.10;1.67;;;25.60;74.40;;;;;;5062757;28;20457;-70
2022/06/20 13:29:48;;;;;;;1.87;1.50;;;26.20;73.60;;;;;;5102729;28;20487;-71
2022/06/20 13:32:25;;;;;;;5.27;1.87;;;27.00;71.70;;;;;;5104190;28;20551;-72
2022/06/20 13:34:59;;;;;;;1.93;1.10;;;27.00;68.50;;;;;;5103074;28;21014;-70
2022/06/20 13:37:41;;;;;;;5.30;1.90;;;26.20;68.50;;;;;;5105058;28;20536;-72
2022/06/20 13:40:24;;;;;;;1.77;1.57;;;25.30;71.00;;;;;;5099365;27;20481;-72